Texas General Land Office
 Texas General Land Office
 George P. Bush, Commissioner

 Oil Spill Prevention
 & Response

Texas Automated Buoy System
Real Time Ocean Observations
Supporting Oil Spill Prevention and
Response since 1995
Geochemical and Environmental Research Group

TABS Buoy W -- Texas Automated Buoy System

TABS Buoy W Conditions at 10/02/2016 20:30 UTC (10/02/2016 15:30 CDT)
28° 21.0420'N   96° 0.3480'W
AA3900 DCS - sensor depth 2m
Water Depth: 72 feet (21 meters)
Speed: 62.00 cm/s (1.21 kts) Direction: 348 °T (NNW) Water Temp: 25°C (77 °F)
System Voltage: 0.0 V Signal Strength: 0.0 dB Ping Count: 0
  


IMPORTANT: Notice to Mariners


Today's Velocity Data (download)

   Date   |  Time  |   East |   North|   Speed|  Dir | WaterT |
          |  (UTC) |  (cm/s)|  (cm/s)|  (cm/s)| (°T) |  (°C)  |
==========+========+========+========+========+======+========+
10/01/2016 17:00:00     3.35     3.72     5.01   42.0    9.6
10/01/2016 20:30:00    -8.02     4.09     9.00  297.0   28.6
10/01/2016 21:00:00    -4.60     1.95     5.00  293.0   28.6
10/01/2016 21:00:00   -22.83     7.42    24.01  288.0   20.9
10/01/2016 21:30:00    -5.73     4.02     7.00  305.1   28.6
10/01/2016 22:00:00    -5.64     2.05     6.00  290.0   28.6
10/01/2016 22:30:00    -9.00     0.00     9.00  270.0   28.9
10/01/2016 23:00:00    -7.96    -0.84     8.00  264.0   28.9
10/01/2016 23:30:00    -7.92     1.11     8.00  278.0   28.9
10/02/2016 00:00:00    -7.79    -1.80     8.00  257.0   28.9
10/02/2016 00:30:00    -5.00     0.00     5.00  270.0   28.9
10/02/2016 01:00:00    -7.42    -3.00     8.00  248.0   28.6
10/02/2016 01:30:00    -8.16    -3.80     9.00  245.0   28.6
10/02/2016 02:00:00    -9.27    -3.75    10.00  248.0   28.6
10/02/2016 05:30:00    -8.46     3.08     9.00  290.0   28.6
10/02/2016 06:00:00    -8.46     3.08     9.00  290.0   28.6
10/02/2016 06:30:00    -4.95     4.95     7.00  315.0   28.6
10/02/2016 07:00:00    -4.95     4.95     7.00  315.0   28.6
10/02/2016 07:30:00   -11.20     4.30    12.00  291.0   28.3
10/02/2016 08:00:00   -36.91    -2.58    37.00  266.0   28.6
10/02/2016 08:30:00   -34.81    -3.66    35.00  264.0   28.9
10/02/2016 09:00:00   -32.84    -8.80    34.00  255.0   28.1
10/02/2016 09:30:00   -32.68    -9.37    34.00  254.0   29.1
10/02/2016 10:00:00   -33.38   -13.49    36.00  248.0   29.1
10/02/2016 10:30:00   -33.38   -13.49    36.00  248.0   29.1
10/02/2016 11:00:00   -32.15   -11.07    34.00  251.0   29.1
10/02/2016 11:30:00   -32.84    -8.80    34.00  255.0   29.1
10/02/2016 12:00:00   -19.94    -9.30    22.00  245.0   29.3
10/02/2016 12:30:00   -29.23   -13.02    32.00  246.0   29.3
10/02/2016 13:00:00   -23.17   -11.80    26.00  243.0   17.3
10/02/2016 13:30:00   -27.19   -12.68    30.00  245.0   29.1
10/02/2016 14:00:00   -22.96   -12.21    26.00  242.0   28.3
10/02/2016 14:30:00   -17.22    -8.03    19.00  245.0   29.3
10/02/2016 15:00:00   -21.19   -11.27    24.00  242.0   29.3
10/02/2016 15:30:00   -26.49   -11.80    29.00  246.0   29.3
10/02/2016 18:30:00   -62.65    -6.59    63.00  264.0   19.1
10/02/2016 20:30:00   -12.89    60.65    62.00  348.0   24.9



       
 

Today's Temperature - Salinity Data     (Download)


   Date   |  Time  |   Temp |   Cond |Salinity| Density|SoundVel|
          |  (UTC) |   (°C) | (ms/cm)|        | kg/m^3 |  (m/s) |
==========+========+========+========+========+========+========+